sensor_id;sensor_type;location;lat;lon;timestamp;pressure;altitude;pressure_sealevel;temperature;humidity
5996;BME280;3026;53.612;7.278;2022-09-09T00:00:13;100584.34;;;15.61;100.00
5996;BME280;3026;53.612;7.278;2022-09-09T00:02:44;100580.94;;;15.59;100.00
5996;BME280;3026;53.612;7.278;2022-09-09T00:05:21;100576.50;;;15.58;100.00
5996;BME280;3026;53.612;7.278;2022-09-09T00:07:55;100582.00;;;15.58;100.00
5996;BME280;3026;53.612;7.278;2022-09-09T00:10:29;100576.50;;;15.58;100.00
5996;BME280;3026;53.612;7.278;2022-09-09T00:13:03;100570.19;;;15.58;100.00
5996;BME280;3026;53.612;7.278;2022-09-09T00:15:38;100569.31;;;15.57;100.00
5996;BME280;3026;53.612;7.278;2022-09-09T00:18:14;100561.09;;;15.57;100.00
5996;BME280;3026;53.612;7.278;2022-09-09T00:20:49;100556.66;;;15.56;100.00
5996;BME280;3026;53.612;7.278;2022-09-09T00:23:24;100562.16;;;15.56;100.00
5996;BME280;3026;53.612;7.278;2022-09-09T00:25:59;100567.84;;;15.55;100.00
5996;BME280;3026;53.612;7.278;2022-09-09T00:28:29;100551.38;;;15.55;100.00
5996;BME280;3026;53.612;7.278;2022-09-09T00:31:01;100551.59;;;15.53;100.00
5996;BME280;3026;53.612;7.278;2022-09-09T00:33:35;100551.59;;;15.53;100.00
5996;BME280;3026;53.612;7.278;2022-09-09T00:36:11;100551.59;;;15.53;100.00
5996;BME280;3026;53.612;7.278;2022-09-09T00:38:43;100556.03;;;15.54;100.00
5996;BME280;3026;53.612;7.278;2022-09-09T00:41:18;100562.59;;;15.53;100.00
5996;BME280;3026;53.612;7.278;2022-09-09T00:43:55;100559.16;;;15.51;100.00
5996;BME280;3026;53.612;7.278;2022-09-09T00:46:50;100561.72;;;15.46;100.00
5996;BME280;3026;53.612;7.278;2022-09-09T00:49:26;100562.78;;;15.45;100.00
5996;BME280;3026;53.612;7.278;2022-09-09T00:52:08;100573.16;;;15.43;100.00
5996;BME280;3026;53.612;7.278;2022-09-09T00:54:46;100558.78;;;15.41;100.00
5996;BME280;3026;53.612;7.278;2022-09-09T00:57:25;100565.72;;;15.37;100.00
5996;BME280;3026;53.612;7.278;2022-09-09T00:59:58;100568.06;;;15.33;100.00
5996;BME280;3026;53.612;7.278;2022-09-09T01:02:36;100569.34;;;15.31;100.00
5996;BME280;3026;53.612;7.278;2022-09-09T01:05:10;100562.16;;;15.30;100.00
5996;BME280;3026;53.612;7.278;2022-09-09T01:07:43;100559.81;;;15.27;100.00
5996;BME280;3026;53.612;7.278;2022-09-09T01:10:21;100566.34;;;15.26;100.00
5996;BME280;3026;53.612;7.278;2022-09-09T01:12:51;100555.78;;;15.23;100.00
5996;BME280;3026;53.612;7.278;2022-09-09T01:15:22;100559.59;;;15.22;100.00
5996;BME280;3026;53.612;7.278;2022-09-09T01:17:58;100560.03;;;15.18;100.00
5996;BME280;3026;53.612;7.278;2022-09-09T01:20:31;100556.66;;;15.16;100.00
5996;BME280;3026;53.612;7.278;2022-09-09T01:23:36;100558.31;;;15.11;100.00
5996;BME280;3026;53.612;7.278;2022-09-09T01:26:18;100550.28;;;15.09;100.00
5996;BME280;3026;53.612;7.278;2022-09-09T01:28:47;100545.84;;;15.08;100.00
5996;BME280;3026;53.612;7.278;2022-09-09T01:31:17;100545.22;;;15.06;100.00
5996;BME280;3026;53.612;7.278;2022-09-09T01:33:45;100543.53;;;15.05;100.00
5996;BME280;3026;53.612;7.278;2022-09-09T01:36:15;100549.44;;;15.02;100.00
5996;BME280;3026;53.612;7.278;2022-09-09T01:38:45;100552.38;;;15.01;100.00
5996;BME280;3026;53.612;7.278;2022-09-09T01:41:12;100549.84;;;14.99;100.00
5996;BME280;3026;53.612;7.278;2022-09-09T01:43:44;100541.81;;;14.98;100.00
5996;BME280;3026;53.612;7.278;2022-09-09T01:46:12;100542.03;;;14.96;100.00
5996;BME280;3026;53.612;7.278;2022-09-09T01:48:39;100540.34;;;14.95;100.00
5996;BME280;3026;53.612;7.278;2022-09-09T01:51:07;100536.75;;;14.95;100.00
5996;BME280;3026;53.612;7.278;2022-09-09T01:53:35;100544.53;;;14.91;100.00
5996;BME280;3026;53.612;7.278;2022-09-09T01:56:11;100542.22;;;14.88;100.00
5996;BME280;3026;53.612;7.278;2022-09-09T01:58:50;100546.88;;;14.87;100.00
5996;BME280;3026;53.612;7.278;2022-09-09T02:01:26;100540.53;;;14.87;100.00
5996;BME280;3026;53.612;7.278;2022-09-09T02:03:56;100548.13;;;14.85;100.00
5996;BME280;3026;53.612;7.278;2022-09-09T02:06:27;100533.34;;;14.86;100.00
5996;BME280;3026;53.612;7.278;2022-09-09T02:08:57;100533.34;;;14.86;100.00
5996;BME280;3026;53.612;7.278;2022-09-09T02:11:27;100536.09;;;14.86;100.00
5996;BME280;3026;53.612;7.278;2022-09-09T02:13:59;100535.47;;;14.84;100.00
5996;BME280;3026;53.612;7.278;2022-09-09T02:16:32;100526.59;;;14.82;100.00
5996;BME280;3026;53.612;7.278;2022-09-09T02:19:03;100527.44;;;14.82;100.00
5996;BME280;3026;53.612;7.278;2022-09-09T02:21:33;100533.53;;;14.78;100.00
5996;BME280;3026;53.612;7.278;2022-09-09T02:24:05;100534.59;;;14.77;100.00
5996;BME280;3026;53.612;7.278;2022-09-09T02:26:38;100530.16;;;14.76;100.00
5996;BME280;3026;53.612;7.278;2022-09-09T02:29:09;100531.22;;;14.75;100.00
5996;BME280;3026;53.612;7.278;2022-09-09T02:31:39;100522.34;;;14.73;100.00
5996;BME280;3026;53.612;7.278;2022-09-09T02:34:09;100520.66;;;14.72;100.00
5996;BME280;3026;53.612;7.278;2022-09-09T02:36:38;100524.47;;;14.71;100.00
5996;BME280;3026;53.612;7.278;2022-09-09T02:39:08;100522.75;;;14.70;100.00
5996;BME280;3026;53.612;7.278;2022-09-09T02:41:37;100526.53;;;14.69;100.00
5996;BME280;3026;53.612;7.278;2022-09-09T02:44:09;100519.38;;;14.68;100.00
5996;BME280;3026;53.612;7.278;2022-09-09T02:46:51;100525.28;;;14.65;100.00
5996;BME280;3026;53.612;7.278;2022-09-09T02:49:27;100526.34;;;14.64;100.00
5996;BME280;3026;53.612;7.278;2022-09-09T02:52:01;100516.63;;;14.61;100.00
5996;BME280;3026;53.612;7.278;2022-09-09T02:54:30;100529.50;;;14.61;100.00
5996;BME280;3026;53.612;7.278;2022-09-09T02:57:02;100534.16;;;14.60;100.00
5996;BME280;3026;53.612;7.278;2022-09-09T02:59:32;100529.88;;;14.57;100.00
5996;BME280;3026;53.612;7.278;2022-09-09T03:01:59;100532.84;;;14.56;100.00
5996;BME280;3026;53.612;7.278;2022-09-09T03:04:26;100536.84;;;14.53;100.00
5996;BME280;3026;53.612;7.278;2022-09-09T03:06:53;100536.22;;;14.51;100.00
5996;BME280;3026;53.612;7.278;2022-09-09T03:09:20;100530.72;;;14.51;100.00
5996;BME280;3026;53.612;7.278;2022-09-09T03:11:46;100536.22;;;14.51;100.00
5996;BME280;3026;53.612;7.278;2022-09-09T03:14:14;100538.31;;;14.49;100.00
5996;BME280;3026;53.612;7.278;2022-09-09T03:16:43;100528.41;;;14.48;100.00
5996;BME280;3026;53.612;7.278;2022-09-09T03:19:10;100518.50;;;14.47;100.00
5996;BME280;3026;53.612;7.278;2022-09-09T03:21:37;100526.06;;;14.45;100.00
5996;BME280;3026;53.612;7.278;2022-09-09T03:24:04;100528.13;;;14.43;100.00
5996;BME280;3026;53.612;7.278;2022-09-09T03:26:32;100539.53;;;14.40;100.00
5996;BME280;3026;53.612;7.278;2022-09-09T03:28:59;100530.66;;;14.38;100.00
5996;BME280;3026;53.612;7.278;2022-09-09T03:31:26;100528.13;;;14.37;100.00
5996;BME280;3026;53.612;7.278;2022-09-09T03:33:57;100536.53;;;14.35;100.00
5996;BME280;3026;53.612;7.278;2022-09-09T03:36:24;100536.53;;;14.35;100.00
5996;BME280;3026;53.612;7.278;2022-09-09T03:38:53;100538.25;;;14.36;100.00
5996;BME280;3026;53.612;7.278;2022-09-09T03:41:21;100535.50;;;14.36;100.00
5996;BME280;3026;53.612;7.278;2022-09-09T03:43:49;100539.94;;;14.37;100.00
5996;BME280;3026;53.612;7.278;2022-09-09T03:46:16;100530.66;;;14.38;100.00
5996;BME280;3026;53.612;7.278;2022-09-09T03:48:42;100534.03;;;14.40;100.00
5996;BME280;3026;53.612;7.278;2022-09-09T03:51:11;100535.72;;;14.41;100.00
5996;BME280;3026;53.612;7.278;2022-09-09T03:53:38;100530.25;;;14.41;100.00
5996;BME280;3026;53.612;7.278;2022-09-09T03:56:06;100535.72;;;14.41;100.00
5996;BME280;3026;53.612;7.278;2022-09-09T03:58:34;100533.63;;;14.43;100.00
5996;BME280;3026;53.612;7.278;2022-09-09T04:01:02;100534.47;;;14.44;100.00
5996;BME280;3026;53.612;7.278;2022-09-09T04:03:30;100532.59;;;14.44;100.00
5996;BME280;3026;53.612;7.278;2022-09-09T04:05:58;100535.97;;;14.46;100.00
5996;BME280;3026;53.612;7.278;2022-09-09T04:08:26;100539.75;;;14.45;100.00
5996;BME280;3026;53.612;7.278;2022-09-09T04:10:54;100533.22;;;14.46;100.00
5996;BME280;3026;53.612;7.278;2022-09-09T04:13:23;100534.06;;;14.47;100.00
5996;BME280;3026;53.612;7.278;2022-09-09T04:15:51;100537.47;;;14.49;100.00
5996;BME280;3026;53.612;7.278;2022-09-09T04:18:19;100537.47;;;14.49;100.00
5996;BME280;3026;53.612;7.278;2022-09-09T04:20:47;100540.84;;;14.51;100.00
5996;BME280;3026;53.612;7.278;2022-09-09T04:23:14;100544.25;;;14.53;100.00
5996;BME280;3026;53.612;7.278;2022-09-09T04:25:45;100546.78;;;14.54;100.00
5996;BME280;3026;53.612;7.278;2022-09-09T04:28:13;100547.41;;;14.56;100.00
5996;BME280;3026;53.612;7.278;2022-09-09T04:30:40;100553.75;;;14.57;100.00
5996;BME280;3026;53.612;7.278;2022-09-09T04:33:08;100551.84;;;14.57;100.00
5996;BME280;3026;53.612;7.278;2022-09-09T04:35:36;100565.38;;;14.59;100.00
5996;BME280;3026;53.612;7.278;2022-09-09T04:38:04;100571.72;;;14.59;100.00
5996;BME280;3026;53.612;7.278;2022-09-09T04:40:32;100558.16;;;14.58;100.00
5996;BME280;3026;53.612;7.278;2022-09-09T04:43:01;100559.00;;;14.58;100.00
5996;BME280;3026;53.612;7.278;2022-09-09T04:45:30;100559.88;;;14.59;100.00
5996;BME280;3026;53.612;7.278;2022-09-09T04:47:57;100564.50;;;14.58;100.00
5996;BME280;3026;53.612;7.278;2022-09-09T04:50:24;100552.50;;;14.59;100.00
5996;BME280;3026;53.612;7.278;2022-09-09T04:52:51;100561.75;;;14.58;100.00
5996;BME280;3026;53.612;7.278;2022-09-09T04:55:18;100553.94;;;14.55;100.00
5996;BME280;3026;53.612;7.278;2022-09-09T04:57:45;100557.31;;;14.57;100.00
5996;BME280;3026;53.612;7.278;2022-09-09T05:00:15;100549.09;;;14.57;100.00
5996;BME280;3026;53.612;7.278;2022-09-09T05:02:42;100551.84;;;14.57;100.00
5996;BME280;3026;53.612;7.278;2022-09-09T05:05:09;100552.69;;;14.58;100.00
5996;BME280;3026;53.612;7.278;2022-09-09T05:07:36;100551.84;;;14.57;100.00
5996;BME280;3026;53.612;7.278;2022-09-09T05:10:04;100555.25;;;14.59;100.00
5996;BME280;3026;53.612;7.278;2022-09-09T05:12:31;100544.28;;;14.59;100.00
5996;BME280;3026;53.612;7.278;2022-09-09T05:14:58;100551.44;;;14.61;100.00
5996;BME280;3026;53.612;7.278;2022-09-09T05:17:26;100554.81;;;14.63;100.00
5996;BME280;3026;53.612;7.278;2022-09-09T05:19:53;100554.81;;;14.63;100.00
5996;BME280;3026;53.612;7.278;2022-09-09T05:22:21;100551.03;;;14.64;100.00
5996;BME280;3026;53.612;7.278;2022-09-09T05:24:48;100547.22;;;14.65;100.00
5996;BME280;3026;53.612;7.278;2022-09-09T05:27:16;100543.44;;;14.66;100.00
5996;BME280;3026;53.612;7.278;2022-09-09T05:29:43;100557.78;;;14.68;100.00
5996;BME280;3026;53.612;7.278;2022-09-09T05:32:10;100553.16;;;14.68;100.00
5996;BME280;3026;53.612;7.278;2022-09-09T05:34:38;100551.91;;;14.71;100.00
5996;BME280;3026;53.612;7.278;2022-09-09T05:37:05;100559.94;;;14.72;100.00
5996;BME280;3026;53.612;7.278;2022-09-09T05:39:33;100553.19;;;14.75;100.00
5996;BME280;3026;53.612;7.278;2022-09-09T05:42:01;100557.41;;;14.77;100.00
5996;BME280;3026;53.612;7.278;2022-09-09T05:44:30;100552.75;;;14.78;100.00
5996;BME280;3026;53.612;7.278;2022-09-09T05:46:59;100561.63;;;14.80;100.00
5996;BME280;3026;53.612;7.278;2022-09-09T05:49:26;100551.94;;;14.84;100.00
5996;BME280;3026;53.612;7.278;2022-09-09T05:51:54;100560.81;;;14.86;100.00
5996;BME280;3026;53.612;7.278;2022-09-09T05:54:21;100557.00;;;14.87;100.00
5996;BME280;3026;53.612;7.278;2022-09-09T05:56:48;100561.00;;;14.91;100.00
5996;BME280;3026;53.612;7.278;2022-09-09T05:59:18;100564.41;;;14.93;100.00
5996;BME280;3026;53.612;7.278;2022-09-09T06:01:45;100555.78;;;14.96;100.00
5996;BME280;3026;53.612;7.278;2022-09-09T06:04:12;100556.41;;;14.98;100.00
5996;BME280;3026;53.612;7.278;2022-09-09T06:06:39;100560.41;;;15.02;100.00
5996;BME280;3026;53.612;7.278;2022-09-09T06:09:09;100565.50;;;15.05;100.00
5996;BME280;3026;53.612;7.278;2022-09-09T06:11:38;100566.78;;;15.09;100.00
5996;BME280;3026;53.612;7.278;2022-09-09T06:14:06;100570.78;;;15.13;100.00
5996;BME280;3026;53.612;7.278;2022-09-09T06:16:33;100562.16;;;15.16;100.00
5996;BME280;3026;53.612;7.278;2022-09-09T06:19:02;100561.72;;;15.20;100.00
5996;BME280;3026;53.612;7.278;2022-09-09T06:21:31;100566.78;;;15.23;100.00
5996;BME280;3026;53.612;7.278;2022-09-09T06:23:59;100571.84;;;15.26;100.00
5996;BME280;3026;53.612;7.278;2022-09-09T06:26:29;100570.41;;;15.30;100.00
5996;BME280;3026;53.612;7.278;2022-09-09T06:28:57;100569.97;;;15.33;100.00
5996;BME280;3026;53.612;7.278;2022-09-09T06:31:25;100565.09;;;15.35;100.00
5996;BME280;3026;53.612;7.278;2022-09-09T06:33:56;100570.16;;;15.38;100.00
5996;BME280;3026;53.612;7.278;2022-09-09T06:36:25;100582.44;;;15.42;100.00
5996;BME280;3026;53.612;7.278;2022-09-09T06:38:53;100574.19;;;15.42;100.00
5996;BME280;3026;53.612;7.278;2022-09-09T06:41:22;100578.63;;;15.43;100.00
5996;BME280;3026;53.612;7.278;2022-09-09T06:43:50;100574.84;;;15.44;100.00
5996;BME280;3026;53.612;7.278;2022-09-09T06:46:18;100574.84;;;15.44;100.00
5996;BME280;3026;53.612;7.278;2022-09-09T06:48:45;100583.06;;;15.44;100.00
5996;BME280;3026;53.612;7.278;2022-09-09T06:51:14;100589.19;;;15.39;100.00
5996;BME280;3026;53.612;7.278;2022-09-09T06:53:42;100590.88;;;15.34;100.00
5996;BME280;3026;53.612;7.278;2022-09-09T06:56:21;100590.00;;;15.27;100.00
5996;BME280;3026;53.612;7.278;2022-09-09T06:58:50;100593.81;;;15.26;100.00
5996;BME280;3026;53.612;7.278;2022-09-09T07:01:19;100591.06;;;15.26;100.00
5996;BME280;3026;53.612;7.278;2022-09-09T07:03:47;100587.94;;;15.29;100.00
5996;BME280;3026;53.612;7.278;2022-09-09T07:06:17;100585.81;;;15.31;100.00
5996;BME280;3026;53.612;7.278;2022-09-09T07:08:48;100594.69;;;15.33;100.00
5996;BME280;3026;53.612;7.278;2022-09-09T07:11:15;100593.63;;;15.34;100.00
5996;BME280;3026;53.612;7.278;2022-09-09T07:13:42;100593.19;;;15.37;100.00
5996;BME280;3026;53.612;7.278;2022-09-09T07:16:12;100589.41;;;15.38;100.00
5996;BME280;3026;53.612;7.278;2022-09-09T07:18:39;100595.56;;;15.40;100.00
5996;BME280;3026;53.612;7.278;2022-09-09T07:21:06;100597.25;;;15.41;100.00
5996;BME280;3026;53.612;7.278;2022-09-09T07:23:34;100593.44;;;15.42;100.00
5996;BME280;3026;53.612;7.278;2022-09-09T07:26:02;100600.63;;;15.43;100.00
5996;BME280;3026;53.612;7.278;2022-09-09T07:28:29;100598.50;;;15.45;100.00
5996;BME280;3026;53.612;7.278;2022-09-09T07:30:58;100607.38;;;15.47;100.00
5996;BME280;3026;53.612;7.278;2022-09-09T07:33:26;100596.38;;;15.47;100.00
5996;BME280;3026;53.612;7.278;2022-09-09T07:36:02;100590.47;;;15.50;100.00
5996;BME280;3026;53.612;7.278;2022-09-09T07:38:30;100595.56;;;15.53;100.00
5996;BME280;3026;53.612;7.278;2022-09-09T07:41:03;100595.56;;;15.53;100.00
5996;BME280;3026;53.612;7.278;2022-09-09T07:43:30;100594.28;;;15.56;100.00
5996;BME280;3026;53.612;7.278;2022-09-09T07:45:57;100595.75;;;15.58;100.00
5996;BME280;3026;53.612;7.278;2022-09-09T07:48:25;100596.41;;;15.60;100.00
5996;BME280;3026;53.612;7.278;2022-09-09T07:50:52;100608.25;;;15.61;100.00
5996;BME280;3026;53.612;7.278;2022-09-09T07:53:19;100603.41;;;15.63;100.00
5996;BME280;3026;53.612;7.278;2022-09-09T07:55:46;100604.88;;;15.65;100.00
5996;BME280;3026;53.612;7.278;2022-09-09T07:58:13;100602.13;;;15.65;100.00
5996;BME280;3026;53.612;7.278;2022-09-09T08:00:40;100602.75;;;15.67;100.00
5996;BME280;3026;53.612;7.278;2022-09-09T08:03:09;100607.00;;;15.70;100.00
5996;BME280;3026;53.612;7.278;2022-09-09T08:05:37;100602.97;;;15.72;100.00
5996;BME280;3026;53.612;7.278;2022-09-09T08:08:05;100608.25;;;15.74;100.00
5996;BME280;3026;53.612;7.278;2022-09-09T08:10:32;100601.50;;;15.77;100.00
5996;BME280;3026;53.612;7.278;2022-09-09T08:12:59;100597.25;;;15.81;100.00
5996;BME280;3026;53.612;7.278;2022-09-09T08:15:26;100596.81;;;15.84;100.00
5996;BME280;3026;53.612;7.278;2022-09-09T08:17:52;100592.19;;;15.91;100.00
5996;BME280;3026;53.612;7.278;2022-09-09T08:20:19;100590.91;;;15.93;100.00
5996;BME280;3026;53.612;7.278;2022-09-09T08:22:48;100596.81;;;15.97;100.00
5996;BME280;3026;53.612;7.278;2022-09-09T08:25:15;100587.09;;;16.01;100.00
5996;BME280;3026;53.612;7.278;2022-09-09T08:27:42;100588.34;;;16.05;100.00
5996;BME280;3026;53.612;7.278;2022-09-09T08:30:10;100593.00;;;16.11;100.00
5996;BME280;3026;53.612;7.278;2022-09-09T08:32:36;100598.06;;;16.14;100.00
5996;BME280;3026;53.612;7.278;2022-09-09T08:35:04;100589.16;;;16.19;100.00
5996;BME280;3026;53.612;7.278;2022-09-09T08:37:31;100588.28;;;16.25;100.00
5996;BME280;3026;53.612;7.278;2022-09-09T08:40:00;100593.75;;;16.31;100.00
5996;BME280;3026;53.612;7.278;2022-09-09T08:42:38;100590.78;;;16.40;100.00
5996;BME280;3026;53.612;7.278;2022-09-09T08:45:28;100594.59;;;16.45;100.00
5996;BME280;3026;53.612;7.278;2022-09-09T08:48:17;100598.31;;;16.64;100.00
5996;BME280;3026;53.612;7.278;2022-09-09T08:50:49;100601.19;;;16.89;100.00
5996;BME280;3026;53.612;7.278;2022-09-09T08:53:19;100599.41;;;17.08;100.00
5996;BME280;3026;53.612;7.278;2022-09-09T08:55:51;100604.59;;;17.23;100.00
5996;BME280;3026;53.612;7.278;2022-09-09T08:58:19;100597.75;;;17.32;100.00
5996;BME280;3026;53.612;7.278;2022-09-09T09:01:21;100610.13;;;17.47;100.00
5996;BME280;3026;53.612;7.278;2022-09-09T09:03:56;100606.66;;;17.59;100.00
5996;BME280;3026;53.612;7.278;2022-09-09T09:06:39;100614.50;;;17.62;100.00
5996;BME280;3026;53.612;7.278;2022-09-09T09:09:17;100612.59;;;17.62;100.00
5996;BME280;3026;53.612;7.278;2022-09-09T09:11:51;100607.47;;;17.66;100.00
5996;BME280;3026;53.612;7.278;2022-09-09T09:14:21;100611.91;;;17.67;100.00
5996;BME280;3026;53.612;7.278;2022-09-09T09:16:51;100616.34;;;17.68;100.00
5996;BME280;3026;53.612;7.278;2022-09-09T09:19:20;100621.88;;;17.68;100.00
5996;BME280;3026;53.612;7.278;2022-09-09T09:21:53;100619.72;;;17.76;100.00
5996;BME280;3026;53.612;7.278;2022-09-09T09:24:27;100614.75;;;17.85;100.00
5996;BME280;3026;53.612;7.278;2022-09-09T09:27:04;100613.03;;;18.09;100.00
5996;BME280;3026;53.612;7.278;2022-09-09T09:29:38;100616.59;;;18.34;100.00
5996;BME280;3026;53.612;7.278;2022-09-09T09:32:07;100605.19;;;18.68;100.00
5996;BME280;3026;53.612;7.278;2022-09-09T09:34:38;100609.78;;;18.92;100.00
5996;BME280;3026;53.612;7.278;2022-09-09T09:37:14;100620.75;;;18.99;100.00
5996;BME280;3026;53.612;7.278;2022-09-09T09:39:43;100625.38;;;19.16;100.00
5996;BME280;3026;53.612;7.278;2022-09-09T09:42:13;100619.25;;;19.56;100.00
5996;BME280;3026;53.612;7.278;2022-09-09T09:44:41;100627.00;;;19.77;100.00
5996;BME280;3026;53.612;7.278;2022-09-09T09:47:12;100630.41;;;20.03;100.00
5996;BME280;3026;53.612;7.278;2022-09-09T09:49:39;100632.44;;;20.07;100.00
5996;BME280;3026;53.612;7.278;2022-09-09T09:52:20;100634.38;;;20.07;100.00
5996;BME280;3026;53.612;7.278;2022-09-09T09:54:49;100636.66;;;20.10;100.00
5996;BME280;3026;53.612;7.278;2022-09-09T09:57:18;100635.47;;;20.29;100.00
5996;BME280;3026;53.612;7.278;2022-09-09T10:00:00;100642.47;;;20.44;100.00
5996;BME280;3026;53.612;7.278;2022-09-09T10:02:37;100645.72;;;20.52;100.00
5996;BME280;3026;53.612;7.278;2022-09-09T10:05:08;100647.47;;;20.70;100.00
5996;BME280;3026;53.612;7.278;2022-09-09T10:07:38;100654.81;;;20.76;100.00
5996;BME280;3026;53.612;7.278;2022-09-09T10:10:08;100654.44;;;20.84;100.00
5996;BME280;3026;53.612;7.278;2022-09-09T10:12:47;100652.59;;;20.90;100.00
5996;BME280;3026;53.612;7.278;2022-09-09T10:15:29;100661.63;;;20.97;100.00
5996;BME280;3026;53.612;7.278;2022-09-09T10:18:08;100666.13;;;20.86;100.00
5996;BME280;3026;53.612;7.278;2022-09-09T10:20:42;100665.78;;;20.71;100.00
5996;BME280;3026;53.612;7.278;2022-09-09T10:23:25;100669.41;;;20.60;100.00
5996;BME280;3026;53.612;7.278;2022-09-09T10:26:11;100667.50;;;20.49;100.00
5996;BME280;3026;53.612;7.278;2022-09-09T10:29:02;100673.63;;;20.39;100.00
5996;BME280;3026;53.612;7.278;2022-09-09T10:31:40;100679.53;;;20.43;100.00
5996;BME280;3026;53.612;7.278;2022-09-09T10:34:17;100676.88;;;20.48;100.00
5996;BME280;3026;53.612;7.278;2022-09-09T10:36:48;100684.09;;;20.49;100.00
5996;BME280;3026;53.612;7.278;2022-09-09T10:39:28;100682.53;;;20.41;100.00
5996;BME280;3026;53.612;7.278;2022-09-09T10:42:04;100689.41;;;20.38;100.00
5996;BME280;3026;53.612;7.278;2022-09-09T10:44:46;100675.41;;;20.33;100.00
5996;BME280;3026;53.612;7.278;2022-09-09T10:47:26;100683.47;;;20.23;100.00
5996;BME280;3026;53.612;7.278;2022-09-09T10:50:10;100683.13;;;20.31;100.00
5996;BME280;3026;53.612;7.278;2022-09-09T10:52:43;100686.00;;;20.36;100.00
5996;BME280;3026;53.612;7.278;2022-09-09T10:55:16;100680.59;;;20.42;100.00
5996;BME280;3026;53.612;7.278;2022-09-09T10:57:46;100686.66;;;20.50;100.00
5996;BME280;3026;53.612;7.278;2022-09-09T11:00:18;100678.22;;;20.57;100.00
5996;BME280;3026;53.612;7.278;2022-09-09T11:02:49;100682.06;;;20.56;100.00
5996;BME280;3026;53.612;7.278;2022-09-09T11:05:21;100684.72;;;20.62;100.00
5996;BME280;3026;53.612;7.278;2022-09-09T11:07:53;100680.03;;;20.63;100.00
5996;BME280;3026;53.612;7.278;2022-09-09T11:10:24;100685.28;;;20.76;100.00
5996;BME280;3026;53.612;7.278;2022-09-09T11:12:56;100678.28;;;20.85;100.00
5996;BME280;3026;53.612;7.278;2022-09-09T11:15:31;100678.22;;;21.09;100.00
5996;BME280;3026;53.612;7.278;2022-09-09T11:18:04;100684.19;;;21.29;100.00
5996;BME280;3026;53.612;7.278;2022-09-09T11:20:31;100686.09;;;21.40;100.00
5996;BME280;3026;53.612;7.278;2022-09-09T11:23:01;100687.75;;;21.41;100.00
5996;BME280;3026;53.612;7.278;2022-09-09T11:25:32;100694.53;;;21.45;100.00
5996;BME280;3026;53.612;7.278;2022-09-09T11:28:26;100691.03;;;21.38;100.00
5996;BME280;3026;53.612;7.278;2022-09-09T11:31:09;100701.81;;;21.23;100.00
5996;BME280;3026;53.612;7.278;2022-09-09T11:33:52;100691.69;;;21.17;100.00
5996;BME280;3026;53.612;7.278;2022-09-09T11:36:34;100693.50;;;21.23;100.00
5996;BME280;3026;53.612;7.278;2022-09-09T11:39:18;100697.97;;;21.12;100.00
5996;BME280;3026;53.612;7.278;2022-09-09T11:41:50;100691.97;;;21.04;100.00
5996;BME280;3026;53.612;7.278;2022-09-09T11:44:20;100692.69;;;21.11;100.00
5996;BME280;3026;53.612;7.278;2022-09-09T11:46:52;100693.13;;;21.31;100.00
5996;BME280;3026;53.612;7.278;2022-09-09T11:49:27;100704.59;;;21.51;100.00
5996;BME280;3026;53.612;7.278;2022-09-09T11:51:56;100698.06;;;21.58;100.00
5996;BME280;3026;53.612;7.278;2022-09-09T11:54:29;100701.13;;;21.73;100.00
5996;BME280;3026;53.612;7.278;2022-09-09T11:56:57;100688.38;;;21.89;100.00
5996;BME280;3026;53.612;7.278;2022-09-09T11:59:26;100695.66;;;22.06;100.00
5996;BME280;3026;53.612;7.278;2022-09-09T12:01:57;100693.63;;;22.19;100.00
5996;BME280;3026;53.612;7.278;2022-09-09T12:04:32;100693.09;;;22.22;100.00
5996;BME280;3026;53.612;7.278;2022-09-09T12:07:01;100694.66;;;22.12;100.00
5996;BME280;3026;53.612;7.278;2022-09-09T12:09:36;100689.00;;;22.07;100.00
5996;BME280;3026;53.612;7.278;2022-09-09T12:12:07;100692.25;;;22.04;100.00
5996;BME280;3026;53.612;7.278;2022-09-09T12:14:36;100691.56;;;21.97;100.00
5996;BME280;3026;53.612;7.278;2022-09-09T12:17:19;100679.09;;;21.83;100.00
5996;BME280;3026;53.612;7.278;2022-09-09T12:19:47;100690.91;;;21.90;100.00
5996;BME280;3026;53.612;7.278;2022-09-09T12:22:22;100677.09;;;21.95;100.00
5996;BME280;3026;53.612;7.278;2022-09-09T12:24:56;100678.88;;;22.01;100.00
5996;BME280;3026;53.612;7.278;2022-09-09T12:27:27;100676.09;;;22.01;100.00
5996;BME280;3026;53.612;7.278;2022-09-09T12:30:03;100679.63;;;21.97;100.00
5996;BME280;3026;53.612;7.278;2022-09-09T12:32:33;100676.50;;;21.93;100.00
5996;BME280;3026;53.612;7.278;2022-09-09T12:35:02;100667.66;;;21.96;100.00
5996;BME280;3026;53.612;7.278;2022-09-09T12:37:34;100679.97;;;22.00;100.00
5996;BME280;3026;53.612;7.278;2022-09-09T12:40:04;100671.81;;;22.10;100.00
5996;BME280;3026;53.612;7.278;2022-09-09T12:42:32;100673.09;;;22.20;100.00
5996;BME280;3026;53.612;7.278;2022-09-09T12:45:00;100677.16;;;22.12;100.00
5996;BME280;3026;53.612;7.278;2022-09-09T12:47:37;100682.66;;;21.95;100.00
5996;BME280;3026;53.612;7.278;2022-09-09T12:50:16;100677.59;;;21.92;100.00
5996;BME280;3026;53.612;7.278;2022-09-09T12:52:43;100678.34;;;21.88;100.00
5996;BME280;3026;53.612;7.278;2022-09-09T12:55:16;100675.06;;;21.74;100.00
5996;BME280;3026;53.612;7.278;2022-09-09T12:57:44;100676.06;;;21.68;100.00
5996;BME280;3026;53.612;7.278;2022-09-09T13:00:15;100669.31;;;21.64;100.00
5996;BME280;3026;53.612;7.278;2022-09-09T13:02:49;100667.50;;;21.69;100.00
5996;BME280;3026;53.612;7.278;2022-09-09T13:05:19;100676.25;;;21.78;100.00
5996;BME280;3026;53.612;7.278;2022-09-09T13:07:46;100665.22;;;21.83;100.00
5996;BME280;3026;53.612;7.278;2022-09-09T13:10:15;100671.47;;;21.90;100.00
5996;BME280;3026;53.612;7.278;2022-09-09T13:12:46;100668.88;;;22.00;100.00
5996;BME280;3026;53.612;7.278;2022-09-09T13:15:20;100666.78;;;22.07;100.00
5996;BME280;3026;53.612;7.278;2022-09-09T13:17:54;100665.19;;;22.11;100.00
5996;BME280;3026;53.612;7.278;2022-09-09T13:20:23;100663.00;;;22.13;100.00